Church Street, Georgia
Current Conditions -  °F | °C
As of 1:52 AM on Sunday 26 Oct 2014 (Local Time) from KATL Reporting Station
Clear Clear  
Wind Chill: 16°   Ceiling: Unl
Heat Index: 16°   Visibility: 10mi
Dew Point: 11°   Wind: 3mph
Humidity: 75%   Direction: 290°WNW
Pressure: 30.01"   Gusts: NA
Location:  33.559°N, 84.4436°W
Report Text: KATL 260552Z 29003KT 10SM CLR 16/11 A3001 RMK AO2 SLP157 T01560111 10194 20156 56011
Loading
Personal Weather Stations






























Interactive Weather Map
Tropical Storm Tracking
New forecast layout! Learn more

10-Day Weather Forecast

Advertisements
Track Severe Weather on mobile